San Diego, California
Traffic Map
Current Weather Conditions
San Diego, California
Broken Clouds
Broken Clouds
70°
Feels Like: 70°
Wind Chill: 70° Ceiling: 22000
Heat Index: 70° Visibility: 10mi
Dew Point: 63° Wind: 5mph
Humidity: 78% Direction: 300° (WNW)
Pressure: 29.99in Gusts: 0mph
Raw Report DataKSAN 010551Z 30004KT 10SM SCT012 BKN220 21/17 A2999 RMK AO2 SLP154 T02110172 10244 20211 50003 $
Traffic Incident Summary
Active as of:
Severity:
Category:
InformationThere was an issue retrieving the traffic information for this location. Please try a different location or try again shortly.
Advertisements
Track Severe Weather on mobile